CheckWX is a tool to help pilots better visualize weather data.  It is not intended as a substitute for an official pre-flight weather briefing.

13:59:41 UTC

VTSC METAR
Narathiwat Airport
Thailand
Current

2 hours ago

VTSC 231200Z 11006KT 080V140 9999 SCT018 SCT035 27/24 Q1012 NOSIG
Observed
Jan-23 @ 12:00 UTC
Wind
  • 110° at 6 KTS
Visibility
10,000+ meters
Flight Rules
VFR
Cloud Levels
  • Scattered at 1,800' AGL
  • Scattered at 3,500' AGL
Temperature
27°C / 81°F
Dewpoint
24°C / 75°F
Heat Index
31°C / 87°F
Humidity
84%
Altimeter
29.88" Hg
Pressure
1011.92 hPa
Previous

4 hours ago

VTSC 231000Z 10009KT 060V140 9999 FEW017 28/24 Q1010 NOSIG
Observed
Jan-23 @ 10:00 UTC
Wind
  • 100° at 9 KTS
Visibility
10,000+ meters
Flight Rules
VFR
Cloud Levels
  • Few at 1,700' AGL
Temperature
28°C / 82°F
Dewpoint
24°C / 75°F
Heat Index
32°C / 89°F
Humidity
79%
Altimeter
29.82" Hg
Pressure
1009.92 hPa
Previous

5 hours ago

VTSC 230900Z 11010KT 070V140 9999 FEW018 29/24 Q1010 NOSIG
Observed
Jan-23 @ 09:00 UTC
Wind
  • 110° at 10 KTS
Visibility
10,000+ meters
Flight Rules
VFR
Cloud Levels
  • Few at 1,800' AGL
Temperature
29°C / 84°F
Dewpoint
24°C / 75°F
Heat Index
33°C / 92°F
Humidity
74%
Altimeter
29.82" Hg
Pressure
1009.92 hPa